Capitol Logistics 307


KSEA
Seattle-Tacoma International Airport
Seattle, Washington, US
KPDX
Portland International Airport
Portland, Oregon, US

Activity Log

Date Flight Route Aircraft Duration
08/26/2020 CPX307 SEA HELNS6 B763 1h 14m
02/23/2020 CPX307 SEA HELNS6 B763 0h 42m
01/06/2020 CPX307 SEA7 SEA HELNS6 B763 0h 45m
07/21/2019 CPX307 SEA HELNS6 B763 0h 35m
06/19/2019 CPX307 SEA HELNS6 B763 0h 42m
03/07/2019 CPX307 SEA HELNS6 B763 0h 47m
02/27/2019 CPX307 SEA HELNS6 B763 0h 53m
01/31/2019 CPX307 SEA BUWZO KRATR2 B763 0h 37m
01/30/2019 CPX307 SEA HELNS6 B763 0h 37m

Route Details

Aircraft Information
Primary: Boeing 767-300BDSF
Backup: Not Available
Route Data
Distance: 112nm
Sched. Duration: 1h 00m
Avg. Duration: 0h 50m (-50m)
Times Flown: 9
Recm'd Route: SEA HELNS6
Planned Altitude: 23,000ft
Origin Wx: KSEA 191653Z 18005KT 1/4SM R16L/0800V1000FT FG VV001 03/02 A3047 RMK AO2 SLP326 T00280022
Dest. Wx: KPDX 191653Z 32003KT 10SM FEW200 BKN250 02/01 A3049 RMK AO2 SLP324 T00220006
Notes:

Financial History
Total Freight: 916,850lbs
Average Load: 101,872lbs/flt
Fuel Used: 72,468lbs
Avg. Fuel Used: 8,052lbs/flt
Fuel Expense: $81,164
Avg. Fuel Expense: $9,018
Avg. Fuel Cost: $1.12/lbs
Total Gross Income: $1,171,182
Pilot Pay: $1,931
Total Expenses: $126,956
Total Revenue: $961,373
Average Revenue: $130,131.33